createdAt,value
2023-02-03T00:00:19.450Z,75.64
2023-02-03T00:03:12.077Z,75.80
2023-02-03T00:05:45.208Z,75.67
2023-02-03T00:08:19.625Z,75.86
2023-02-03T00:10:52.536Z,76.14
2023-02-03T00:13:26.807Z,75.73
2023-02-03T00:16:01.601Z,75.89
2023-02-03T00:18:34.188Z,75.68
2023-02-03T00:21:06.862Z,75.73
2023-02-03T00:23:39.290Z,75.60
2023-02-03T00:26:13.951Z,75.94
2023-02-03T00:28:47.948Z,75.73
2023-02-03T00:31:22.550Z,75.46
2023-02-03T00:33:58.818Z,75.69
2023-02-03T00:36:31.378Z,75.66
2023-02-03T00:39:04.818Z,75.85
2023-02-03T00:41:38.781Z,75.65
2023-02-03T00:44:13.455Z,75.55
2023-02-03T00:46:46.826Z,75.54
2023-02-03T00:49:19.867Z,75.73
2023-02-03T00:51:53.083Z,75.58
2023-02-03T00:54:26.684Z,75.72
2023-02-03T00:56:59.392Z,75.54
2023-02-03T00:59:32.634Z,75.23
2023-02-03T01:02:05.832Z,75.59
2023-02-03T01:04:38.664Z,75.73
2023-02-03T01:07:11.646Z,75.51
2023-02-03T01:09:44.233Z,75.44
2023-02-03T01:12:16.648Z,75.61
2023-02-03T01:14:49.103Z,75.55
2023-02-03T01:17:22.614Z,75.53
2023-02-03T01:19:57.383Z,75.26
2023-02-03T01:22:32.005Z,75.39
2023-02-03T01:25:04.711Z,75.55
2023-02-03T01:27:37.411Z,75.31
2023-02-03T01:30:11.455Z,75.45
2023-02-03T01:32:43.978Z,75.39
2023-02-03T01:35:16.788Z,75.34
2023-02-03T01:37:49.162Z,75.21
2023-02-03T01:40:22.055Z,75.40
2023-02-03T01:42:54.522Z,75.21
2023-02-03T01:45:27.056Z,75.44
2023-02-03T01:48:01.563Z,75.23
2023-02-03T01:50:37.640Z,75.47
2023-02-03T01:53:13.356Z,75.13
2023-02-03T01:55:50.314Z,75.23
2023-02-03T01:58:26.054Z,75.58
2023-02-03T02:00:59.392Z,75.39
2023-02-03T02:03:37.772Z,75.26
2023-02-03T02:06:11.761Z,75.27
2023-02-03T02:08:51.504Z,75.53
2023-02-03T02:11:24.530Z,75.41
2023-02-03T02:13:59.758Z,75.40
2023-02-03T02:16:34.596Z,75.50
2023-02-03T02:19:28.930Z,75.43
2023-02-03T02:22:14.616Z,75.34
2023-02-03T02:25:15.917Z,75.25
2023-02-03T02:28:31.170Z,75.39
2023-02-03T02:31:24.685Z,75.33
2023-02-03T02:34:04.870Z,75.39
2023-02-03T02:36:46.818Z,75.23
2023-02-03T02:39:25.132Z,75.24
2023-02-03T02:42:04.879Z,75.16
2023-02-03T02:44:42.931Z,75.33
2023-02-03T02:47:20.993Z,75.27
2023-02-03T02:49:59.780Z,75.12
2023-02-03T02:52:37.359Z,75.30
2023-02-03T02:55:16.116Z,75.22
2023-02-03T02:57:50.629Z,75.20
2023-02-03T03:00:24.671Z,75.20
2023-02-03T03:02:57.710Z,75.36
2023-02-03T03:05:31.174Z,75.39
2023-02-03T03:08:05.279Z,75.43
2023-02-03T03:10:39.231Z,75.27
2023-02-03T03:13:17.793Z,75.21
2023-02-03T03:15:54.497Z,75.20
2023-02-03T03:18:31.901Z,75.44
2023-02-03T03:21:08.205Z,75.29
2023-02-03T03:23:43.132Z,75.45
2023-02-03T03:26:19.357Z,75.52
2023-02-03T03:28:53.843Z,75.51
2023-02-03T03:31:27.186Z,75.58
2023-02-03T03:34:00.128Z,75.36
2023-02-03T03:36:37.087Z,75.50
2023-02-03T03:39:14.904Z,75.38
2023-02-03T03:41:57.752Z,75.73
2023-02-03T03:44:36.547Z,75.44
2023-02-03T03:47:16.171Z,75.43
2023-02-03T03:49:51.866Z,75.61
2023-02-03T03:52:29.154Z,75.72
2023-02-03T03:55:03.729Z,75.58
2023-02-03T03:57:41.184Z,75.58
2023-02-03T04:00:21.272Z,75.39
2023-02-03T04:02:57.898Z,75.57
2023-02-03T04:05:32.175Z,75.56
2023-02-03T04:08:04.644Z,75.59
2023-02-03T04:10:39.662Z,75.90
2023-02-03T04:13:14.711Z,75.46
2023-02-03T04:15:47.161Z,75.65
2023-02-03T04:18:20.609Z,75.34
2023-02-03T04:20:53.138Z,75.43
2023-02-03T04:23:25.551Z,75.82
2023-02-03T04:25:57.935Z,75.53
2023-02-03T04:28:30.520Z,75.63
2023-02-03T04:31:04.729Z,75.52
2023-02-03T04:33:37.141Z,75.57
2023-02-03T04:36:11.092Z,75.32
2023-02-03T04:38:43.535Z,75.64
2023-02-03T04:41:16.039Z,75.41
2023-02-03T04:43:48.488Z,75.56
2023-02-03T04:46:20.944Z,75.79
2023-02-03T04:48:53.335Z,75.49
2023-02-03T04:51:25.760Z,75.80
2023-02-03T04:53:58.293Z,75.72
2023-02-03T04:56:30.664Z,75.59
2023-02-03T04:59:03.476Z,75.63
2023-02-03T05:01:35.969Z,75.53
2023-02-03T05:04:08.572Z,75.61
2023-02-03T05:06:41.039Z,75.51
2023-02-03T05:09:13.496Z,75.49
2023-02-03T05:11:46.052Z,75.59
2023-02-03T05:14:18.455Z,75.41
2023-02-03T05:16:51.146Z,75.62
2023-02-03T05:19:23.596Z,75.60
2023-02-03T05:21:56.087Z,75.66
2023-02-03T05:24:28.740Z,75.63
2023-02-03T05:27:01.186Z,75.70
2023-02-03T05:29:33.703Z,75.38
2023-02-03T05:32:06.595Z,75.45
2023-02-03T05:34:41.339Z,75.31
2023-02-03T05:37:14.773Z,75.50
2023-02-03T05:39:47.173Z,75.47
2023-02-03T05:42:19.571Z,75.75
2023-02-03T05:44:51.976Z,75.55
2023-02-03T05:47:24.370Z,75.37
2023-02-03T05:49:56.817Z,75.48
2023-02-03T05:52:29.754Z,75.17
2023-02-03T05:55:02.363Z,75.19
2023-02-03T05:57:34.857Z,75.28
2023-02-03T06:00:10.062Z,75.41
2023-02-03T06:02:44.961Z,75.34
2023-02-03T06:05:17.659Z,75.28
2023-02-03T06:07:50.418Z,75.09
2023-02-03T06:10:23.613Z,75.21
2023-02-03T06:12:56.051Z,75.26
2023-02-03T06:15:28.518Z,75.29
2023-02-03T06:18:01.296Z,75.35
2023-02-03T06:20:34.209Z,75.28
2023-02-03T06:23:06.828Z,75.24
2023-02-03T06:25:39.267Z,75.18
2023-02-03T06:28:11.897Z,75.24
2023-02-03T06:30:44.501Z,75.19
2023-02-03T06:33:17.171Z,75.06
2023-02-03T06:35:49.681Z,75.31
2023-02-03T06:38:22.197Z,75.23
2023-02-03T06:40:54.569Z,75.27
2023-02-03T06:43:27.176Z,75.14
2023-02-03T06:45:59.710Z,75.04
2023-02-03T06:48:32.151Z,75.13
2023-02-03T06:51:05.785Z,75.18
2023-02-03T06:53:38.254Z,75.32
2023-02-03T06:56:10.807Z,75.44
2023-02-03T06:58:43.254Z,75.41
2023-02-03T07:01:16.158Z,75.36
2023-02-03T07:03:49.103Z,75.59
2023-02-03T07:06:22.117Z,75.33
2023-02-03T07:08:54.489Z,75.40
2023-02-03T07:11:28.247Z,75.45
2023-02-03T07:14:00.749Z,75.40
2023-02-03T07:16:34.456Z,75.46
2023-02-03T07:19:07.696Z,75.68
2023-02-03T07:21:40.065Z,75.46
2023-02-03T07:24:12.423Z,75.43
2023-02-03T07:26:44.843Z,75.54
2023-02-03T07:29:17.289Z,75.57
2023-02-03T07:31:49.947Z,75.56
2023-02-03T07:34:22.491Z,75.54
2023-02-03T07:36:54.993Z,75.41
2023-02-03T07:39:27.345Z,75.51
2023-02-03T07:41:59.819Z,75.43
2023-02-03T07:44:32.957Z,75.30
2023-02-03T07:47:05.438Z,75.19
2023-02-03T07:49:37.990Z,75.16
2023-02-03T07:52:10.549Z,75.37
2023-02-03T07:54:42.993Z,75.44
2023-02-03T07:57:15.516Z,75.35
2023-02-03T07:59:47.914Z,75.37
2023-02-03T08:02:20.414Z,75.30
2023-02-03T08:04:52.931Z,75.20
2023-02-03T08:07:25.621Z,75.24
2023-02-03T08:09:58.071Z,75.29
2023-02-03T08:12:30.542Z,75.15
2023-02-03T08:15:03.205Z,75.39
2023-02-03T08:17:35.844Z,75.31
2023-02-03T08:20:09.912Z,75.42
2023-02-03T08:22:42.342Z,75.27
2023-02-03T08:25:15.156Z,75.32
2023-02-03T08:27:47.780Z,75.29
2023-02-03T08:30:20.125Z,75.37
2023-02-03T08:32:55.704Z,75.14
2023-02-03T08:35:28.195Z,75.33
2023-02-03T08:38:00.729Z,75.30
2023-02-03T08:40:33.256Z,75.38
2023-02-03T08:43:05.613Z,75.29
2023-02-03T08:45:38.199Z,75.41
2023-02-03T08:48:10.705Z,75.62
2023-02-03T08:50:52.029Z,75.48
2023-02-03T08:53:24.386Z,75.42
2023-02-03T08:55:57.191Z,75.55
2023-02-03T08:58:29.585Z,75.33
2023-02-03T09:01:10.668Z,75.45
2023-02-03T09:03:43.654Z,75.44
2023-02-03T09:06:16.881Z,75.37
2023-02-03T09:08:49.786Z,75.31
2023-02-03T09:11:22.338Z,75.26
2023-02-03T09:13:56.964Z,75.43
2023-02-03T09:16:31.097Z,75.53
2023-02-03T09:19:03.863Z,75.44
2023-02-03T09:21:38.653Z,75.31
2023-02-03T09:24:18.657Z,75.37
2023-02-03T09:26:51.125Z,75.26
2023-02-03T09:29:23.723Z,75.17
2023-02-03T09:31:56.144Z,75.22
2023-02-03T09:34:29.190Z,75.18
2023-02-03T09:37:02.501Z,75.02
2023-02-03T09:39:34.981Z,74.97
2023-02-03T09:42:20.609Z,75.04
2023-02-03T09:44:55.517Z,74.79
2023-02-03T09:47:30.837Z,74.86
2023-02-03T09:50:05.800Z,75.16
2023-02-03T09:52:42.162Z,75.17
2023-02-03T09:55:26.693Z,74.98
2023-02-03T09:58:04.785Z,74.97
2023-02-03T10:00:42.578Z,74.90
2023-02-03T10:03:26.137Z,74.89
2023-02-03T10:06:15.052Z,74.89
2023-02-03T10:09:20.411Z,75.02
2023-02-03T10:12:21.804Z,74.98
2023-02-03T10:15:11.324Z,74.89
2023-02-03T10:17:48.821Z,75.01
2023-02-03T10:20:25.734Z,75.12
2023-02-03T10:23:03.196Z,74.75
2023-02-03T10:25:41.455Z,74.67
2023-02-03T10:28:19.105Z,74.87
2023-02-03T10:30:55.696Z,74.87
2023-02-03T10:33:30.799Z,74.97
2023-02-03T10:36:12.543Z,74.94
2023-02-03T10:38:52.345Z,74.75
2023-02-03T10:41:25.593Z,74.67
2023-02-03T10:43:58.318Z,74.78
2023-02-03T10:46:33.537Z,75.13
2023-02-03T10:49:06.803Z,74.67
2023-02-03T10:51:42.774Z,74.71
2023-02-03T10:54:32.159Z,74.83
2023-02-03T10:57:13.132Z,74.68
2023-02-03T10:59:47.760Z,74.81
2023-02-03T11:02:30.077Z,74.62
2023-02-03T11:05:25.140Z,74.74
2023-02-03T11:07:57.807Z,74.71
2023-02-03T11:10:35.877Z,74.74
2023-02-03T11:13:22.531Z,74.71
2023-02-03T11:16:04.077Z,74.82
2023-02-03T11:18:52.628Z,74.82
2023-02-03T11:21:26.954Z,74.87
2023-02-03T11:24:04.731Z,74.75
2023-02-03T11:26:43.066Z,74.98
2023-02-03T11:29:24.270Z,74.99
2023-02-03T11:31:58.667Z,74.81
2023-02-03T11:34:34.601Z,74.88
2023-02-03T11:37:29.909Z,74.77
2023-02-03T11:40:25.407Z,75.01
2023-02-03T11:43:15.665Z,74.86
2023-02-03T11:45:50.249Z,74.90
2023-02-03T11:48:29.272Z,74.94
2023-02-03T11:51:06.867Z,74.63
2023-02-03T11:53:59.009Z,74.84
2023-02-03T11:56:40.814Z,74.78
2023-02-03T11:59:33.442Z,74.65
2023-02-03T12:02:35.251Z,74.65
2023-02-03T12:05:27.621Z,74.64
2023-02-03T12:08:15.900Z,74.60
2023-02-03T12:10:58.351Z,74.84
2023-02-03T12:13:48.470Z,74.74
2023-02-03T12:16:48.863Z,74.68
2023-02-03T12:19:30.203Z,74.85
2023-02-03T12:22:11.999Z,74.83
2023-02-03T12:24:54.020Z,74.78
2023-02-03T12:27:42.962Z,74.79
2023-02-03T12:30:23.524Z,74.65
2023-02-03T12:33:00.786Z,74.79
2023-02-03T12:35:37.717Z,74.79
2023-02-03T12:38:16.159Z,74.68
2023-02-03T12:40:53.069Z,74.78
2023-02-03T12:43:32.961Z,74.84
2023-02-03T12:46:11.509Z,74.78
2023-02-03T12:48:52.841Z,74.74
2023-02-03T12:51:34.579Z,74.70
2023-02-03T12:54:17.703Z,74.67
2023-02-03T12:56:55.163Z,74.81
2023-02-03T12:59:31.644Z,74.64
2023-02-03T13:02:14.547Z,74.66
2023-02-03T13:04:56.877Z,74.76
2023-02-03T13:07:37.935Z,74.72
2023-02-03T13:10:20.769Z,74.73
2023-02-03T13:12:57.287Z,74.77
2023-02-03T13:15:33.196Z,74.71
2023-02-03T13:18:15.777Z,74.81
2023-02-03T13:20:48.531Z,74.89
2023-02-03T13:23:21.213Z,74.90
2023-02-03T13:26:33.684Z,74.75
2023-02-03T13:29:28.935Z,74.78
2023-02-03T13:32:17.084Z,74.87
2023-02-03T13:35:24.791Z,74.90
2023-02-03T13:38:34.940Z,74.63
2023-02-03T13:41:12.344Z,74.78
2023-02-03T13:43:50.600Z,74.85
2023-02-03T13:46:27.365Z,74.92
2023-02-03T13:49:02.813Z,74.82
2023-02-03T13:51:37.414Z,74.80
2023-02-03T13:54:16.876Z,74.97
2023-02-03T13:57:00.033Z,74.88
2023-02-03T13:59:45.172Z,75.07
2023-02-03T14:02:47.606Z,74.91
2023-02-03T14:05:42.352Z,74.98
2023-02-03T14:08:53.208Z,74.90
2023-02-03T14:11:45.875Z,75.06
2023-02-03T14:14:46.671Z,75.12
2023-02-03T14:18:04.971Z,75.00
2023-02-03T14:20:51.547Z,74.99
2023-02-03T14:23:35.285Z,75.06
2023-02-03T14:26:16.440Z,75.25
2023-02-03T14:28:50.645Z,75.19
2023-02-03T14:31:25.368Z,75.16
2023-02-03T14:34:09.505Z,75.37
2023-02-03T14:36:47.003Z,75.15
2023-02-03T14:39:44.232Z,75.07
2023-02-03T14:42:26.076Z,75.20
2023-02-03T14:45:11.969Z,74.98
2023-02-03T14:48:00.145Z,75.30
2023-02-03T14:50:45.565Z,75.25
2023-02-03T14:53:53.650Z,75.25
2023-02-03T14:56:54.823Z,75.40
2023-02-03T14:59:31.804Z,75.30
2023-02-03T15:02:26.067Z,75.37
2023-02-03T15:05:40.556Z,75.39
2023-02-03T15:08:37.253Z,75.48
2023-02-03T15:11:27.134Z,75.36
2023-02-03T15:14:18.912Z,75.49
2023-02-03T15:16:57.765Z,75.63
2023-02-03T15:19:34.533Z,75.44
2023-02-03T15:22:21.529Z,75.49
2023-02-03T15:24:56.976Z,75.45
2023-02-03T15:27:31.911Z,75.50
2023-02-03T15:30:19.697Z,75.51
2023-02-03T15:33:01.429Z,75.69
2023-02-03T15:35:37.111Z,75.53
2023-02-03T15:38:13.777Z,75.61
2023-02-03T15:40:50.388Z,75.73
2023-02-03T15:43:27.107Z,75.61
2023-02-03T15:46:07.231Z,75.52
2023-02-03T15:48:44.886Z,75.56
2023-02-03T15:51:20.862Z,75.73
2023-02-03T15:53:59.354Z,75.68
2023-02-03T15:56:37.972Z,75.59
2023-02-03T15:59:22.916Z,75.70
2023-02-03T16:01:56.139Z,75.62
2023-02-03T16:04:28.734Z,75.79
2023-02-03T16:07:01.854Z,75.74
2023-02-03T16:09:40.344Z,75.72
2023-02-03T16:12:26.581Z,75.77
2023-02-03T16:15:01.778Z,75.75
2023-02-03T16:17:34.115Z,75.73
2023-02-03T16:20:33.518Z,75.92
2023-02-03T16:23:19.370Z,75.96
2023-02-03T16:26:17.851Z,75.82
2023-02-03T16:29:23.441Z,75.76
2023-02-03T16:32:13.614Z,75.74
2023-02-03T16:35:04.286Z,75.76
2023-02-03T16:38:03.059Z,75.80
2023-02-03T16:40:53.307Z,75.88
2023-02-03T16:43:43.353Z,75.79
2023-02-03T16:46:33.643Z,75.55
2023-02-03T16:49:24.093Z,75.67
2023-02-03T16:51:56.669Z,75.84
2023-02-03T16:54:29.173Z,75.97
2023-02-03T16:57:01.620Z,75.74
2023-02-03T16:59:34.964Z,75.80
2023-02-03T17:02:08.192Z,75.54
2023-02-03T17:04:40.656Z,75.88
2023-02-03T17:07:13.336Z,75.74
2023-02-03T17:09:45.890Z,75.89
2023-02-03T17:12:18.314Z,75.65
2023-02-03T17:14:50.776Z,75.72
2023-02-03T17:17:23.239Z,75.56
2023-02-03T17:19:57.076Z,75.65
2023-02-03T17:22:30.622Z,75.77
2023-02-03T17:25:03.379Z,75.67
2023-02-03T17:27:35.854Z,75.59
2023-02-03T17:30:12.023Z,75.71
2023-02-03T17:32:44.419Z,75.48
2023-02-03T17:35:16.865Z,75.43
2023-02-03T17:37:49.300Z,75.63
2023-02-03T17:54:34.711Z,75.59
2023-02-03T17:57:07.387Z,75.59
2023-02-03T17:59:39.960Z,75.55
2023-02-03T18:02:13.179Z,75.58
2023-02-03T18:04:45.595Z,75.54
2023-02-03T18:07:18.096Z,75.69
2023-02-03T18:09:50.671Z,75.62
2023-02-03T18:12:23.513Z,75.48
2023-02-03T18:14:57.745Z,75.56
2023-02-03T18:17:30.556Z,75.27
2023-02-03T18:20:04.111Z,75.46
2023-02-03T18:22:36.968Z,75.43
2023-02-03T18:25:10.259Z,75.48
2023-02-03T18:27:42.978Z,75.17
2023-02-03T18:30:18.757Z,75.33
2023-02-03T18:32:54.200Z,75.39
2023-02-03T18:35:26.566Z,75.55
2023-02-03T18:37:58.999Z,75.41
2023-02-03T18:40:31.988Z,75.49
2023-02-03T18:43:04.625Z,75.47
2023-02-03T18:45:38.620Z,75.47
2023-02-03T18:48:11.069Z,75.61
2023-02-03T18:50:45.465Z,75.52
2023-02-03T18:53:17.916Z,75.39
2023-02-03T18:55:50.365Z,75.44
2023-02-03T18:58:22.892Z,75.44
2023-02-03T19:00:56.202Z,75.54
2023-02-03T19:03:28.761Z,75.55
2023-02-03T19:06:01.387Z,75.51
2023-02-03T19:08:33.965Z,75.59
2023-02-03T19:11:06.765Z,75.51
2023-02-03T19:13:39.259Z,75.54
2023-02-03T19:16:14.326Z,75.45
2023-02-03T19:18:47.782Z,75.42
2023-02-03T19:21:23.240Z,75.64
2023-02-03T19:23:55.855Z,75.53
2023-02-03T19:26:29.040Z,75.48
2023-02-03T19:29:01.645Z,75.46
2023-02-03T19:31:35.957Z,75.39
2023-02-03T19:34:10.744Z,75.72
2023-02-03T19:36:43.604Z,75.42
2023-02-03T19:39:18.828Z,75.60
2023-02-03T19:41:52.759Z,75.63
2023-02-03T19:44:25.343Z,75.53
2023-02-03T19:46:59.134Z,75.22
2023-02-03T19:49:31.570Z,75.36
2023-02-03T19:52:05.473Z,75.34
2023-02-03T19:54:39.471Z,75.42
2023-02-03T19:57:14.010Z,75.36
2023-02-03T19:59:47.541Z,75.41
2023-02-03T20:02:20.304Z,75.31
2023-02-03T20:04:52.985Z,75.32
2023-02-03T20:07:25.685Z,75.34
2023-02-03T20:09:58.109Z,75.31
2023-02-03T20:12:32.012Z,75.53
2023-02-03T20:15:04.661Z,75.37
2023-02-03T20:17:37.107Z,75.37
2023-02-03T20:20:12.258Z,75.19
2023-02-03T20:22:43.109Z,75.19
2023-02-03T20:25:15.566Z,75.31
2023-02-03T20:27:48.316Z,75.31
2023-02-03T20:30:20.973Z,75.14
2023-02-03T20:32:54.782Z,75.31
2023-02-03T20:35:27.777Z,75.33
2023-02-03T20:38:00.373Z,75.32
2023-02-03T20:40:33.253Z,75.37
2023-02-03T20:43:14.331Z,75.41
2023-02-03T20:45:47.497Z,75.23
2023-02-03T20:48:22.413Z,75.25
2023-02-03T20:50:55.365Z,75.22
2023-02-03T20:53:28.610Z,75.41
2023-02-03T20:56:02.167Z,75.18
2023-02-03T20:58:37.357Z,75.44
2023-02-03T21:01:16.003Z,75.28
2023-02-03T21:04:06.887Z,75.13
2023-02-03T21:06:39.671Z,75.30
2023-02-03T21:09:16.500Z,75.16
2023-02-03T21:11:49.024Z,75.22
2023-02-03T21:14:23.546Z,75.38
2023-02-03T21:16:56.664Z,75.22
2023-02-03T21:19:34.111Z,75.44
2023-02-03T21:22:19.666Z,75.34
2023-02-03T21:24:52.326Z,75.36
2023-02-03T21:27:29.553Z,75.30
2023-02-03T21:30:03.775Z,75.25
2023-02-03T21:32:41.197Z,75.33
2023-02-03T21:35:25.770Z,75.39
2023-02-03T21:38:02.144Z,75.24
2023-02-03T21:40:36.021Z,75.16
2023-02-03T21:43:19.608Z,75.34
2023-02-03T21:45:52.617Z,75.06
2023-02-03T21:48:33.794Z,75.40
2023-02-03T21:51:15.436Z,75.08
2023-02-03T21:53:53.943Z,75.20
2023-02-03T21:56:31.426Z,75.17
2023-02-03T21:59:05.001Z,75.24
2023-02-03T22:01:42.647Z,75.10
2023-02-03T22:04:15.030Z,75.20
2023-02-03T22:06:49.728Z,74.96
2023-02-03T22:09:24.373Z,75.03
2023-02-03T22:11:56.934Z,74.89
2023-02-03T22:14:29.375Z,74.92
2023-02-03T22:17:01.849Z,75.06
2023-02-03T22:19:34.350Z,74.99
2023-02-03T22:22:06.880Z,74.77
2023-02-03T22:24:39.378Z,74.97
2023-02-03T22:27:11.805Z,74.92
2023-02-03T22:29:44.483Z,74.93
2023-02-03T22:32:16.935Z,74.84
2023-02-03T22:34:49.446Z,74.90
2023-02-03T22:37:21.989Z,74.79
2023-02-03T22:39:54.434Z,74.80
2023-02-03T22:42:26.912Z,74.87
2023-02-03T22:44:59.217Z,74.79
2023-02-03T22:47:31.629Z,75.02
2023-02-03T22:50:04.670Z,75.03
2023-02-03T22:52:37.296Z,75.03
2023-02-03T22:55:11.464Z,74.91
2023-02-03T22:57:43.861Z,74.80
2023-02-03T23:00:22.375Z,75.01
2023-02-03T23:02:55.037Z,74.82
2023-02-03T23:05:27.634Z,74.85
2023-02-03T23:08:00.316Z,74.98
2023-02-03T23:10:33.030Z,74.78
2023-02-03T23:13:05.880Z,74.93
2023-02-03T23:15:38.450Z,75.03
2023-02-03T23:18:10.893Z,75.02
2023-02-03T23:20:43.463Z,74.97
2023-02-03T23:23:16.279Z,74.88
2023-02-03T23:25:48.696Z,75.06
2023-02-03T23:28:21.161Z,74.99
2023-02-03T23:30:53.650Z,75.01
2023-02-03T23:33:26.142Z,74.98
2023-02-03T23:35:58.525Z,74.96
2023-02-03T23:38:32.382Z,75.14
2023-02-03T23:41:04.937Z,74.99
2023-02-03T23:43:38.026Z,75.08
2023-02-03T23:46:11.701Z,74.98
2023-02-03T23:48:44.227Z,75.10
2023-02-03T23:51:16.662Z,74.96
2023-02-03T23:53:49.123Z,75.15
2023-02-03T23:56:21.580Z,75.12
2023-02-03T23:58:53.922Z,75.14
